createdAt,value
2022-09-15T00:03:02.607Z,22.04
2022-09-15T00:08:46.317Z,22.03
2022-09-15T00:14:29.358Z,21.98
2022-09-15T00:20:12.979Z,21.92
2022-09-15T00:25:56.191Z,21.85
2022-09-15T00:31:40.327Z,21.87
2022-09-15T00:37:23.602Z,21.86
2022-09-15T00:43:08.577Z,21.95
2022-09-15T00:48:55.592Z,21.92
2022-09-15T00:54:42.427Z,21.87
2022-09-15T01:00:27.097Z,21.81
2022-09-15T01:06:12.658Z,21.76
2022-09-15T01:11:56.098Z,21.77
2022-09-15T01:17:45.202Z,21.79
2022-09-15T01:23:35.286Z,21.77
2022-09-15T01:29:38.682Z,21.75
2022-09-15T01:35:31.299Z,21.78
2022-09-15T01:41:16.528Z,21.74
2022-09-15T01:47:01.555Z,21.69
2022-09-15T01:52:46.336Z,21.68
2022-09-15T01:58:29.602Z,21.63
2022-09-15T02:04:14.617Z,21.6
2022-09-15T02:10:03.123Z,21.56
2022-09-15T02:15:49.050Z,21.56
2022-09-15T02:21:33.888Z,21.53
2022-09-15T02:27:19.437Z,21.49
2022-09-15T02:33:04.865Z,21.46
2022-09-15T02:38:50.842Z,21.43
2022-09-15T02:44:34.599Z,21.44
2022-09-15T02:50:18.276Z,21.43
2022-09-15T02:56:02.201Z,21.39
2022-09-15T03:01:45.439Z,21.34
2022-09-15T03:07:28.931Z,21.33
2022-09-15T03:13:12.083Z,21.33
2022-09-15T03:18:56.166Z,21.31
2022-09-15T03:24:39.422Z,21.24
2022-09-15T03:30:23.088Z,21.22
2022-09-15T03:36:06.850Z,21.21
2022-09-15T03:41:50.239Z,21.17
2022-09-15T03:47:33.414Z,21.14
2022-09-15T03:53:16.711Z,21.13
2022-09-15T03:59:00.373Z,21.07
2022-09-15T04:04:43.682Z,21.05
2022-09-15T04:10:27.056Z,21.03
2022-09-15T04:16:12.283Z,21.04
2022-09-15T04:21:55.863Z,21.03
2022-09-15T04:27:39.163Z,21
2022-09-15T04:33:22.361Z,20.94
2022-09-15T04:39:05.583Z,20.92
2022-09-15T04:44:48.888Z,20.91
2022-09-15T04:50:33.227Z,20.91
2022-09-15T04:56:19.991Z,20.89
2022-09-15T05:02:03.171Z,20.88
2022-09-15T05:07:47.319Z,20.89
2022-09-15T05:13:30.688Z,20.9
2022-09-15T05:19:13.914Z,20.87
2022-09-15T05:24:57.011Z,20.9
2022-09-15T05:30:44.509Z,20.94
2022-09-15T05:36:27.746Z,20.9
2022-09-15T05:42:11.122Z,20.9
2022-09-15T05:47:55.595Z,20.9
2022-09-15T05:53:40.727Z,20.89
2022-09-15T05:59:24.090Z,20.93
2022-09-15T06:05:07.934Z,20.97
2022-09-15T06:10:51.353Z,21.03
2022-09-15T06:16:35.088Z,21.16
2022-09-15T06:22:19.724Z,21.22
2022-09-15T06:28:03.006Z,21.25
2022-09-15T06:33:46.810Z,21.3
2022-09-15T06:39:30.067Z,21.38
2022-09-15T06:45:13.578Z,21.46
2022-09-15T06:50:57.312Z,21.51
2022-09-15T06:56:40.693Z,21.63
2022-09-15T07:02:24.251Z,21.76
2022-09-15T07:08:07.827Z,21.9
2022-09-15T07:13:52.053Z,22.11
2022-09-15T07:19:35.882Z,22.32
2022-09-15T07:25:19.383Z,22.54
2022-09-15T07:31:02.948Z,22.74
2022-09-15T07:36:46.126Z,22.82
2022-09-15T07:42:35.247Z,23.08
2022-09-15T07:48:20.419Z,23.15
2022-09-15T07:54:08.935Z,23.25
2022-09-15T07:59:52.224Z,23.37
2022-09-15T08:05:38.752Z,23.44
2022-09-15T08:11:27.691Z,23.61
2022-09-15T08:17:11.738Z,23.81
2022-09-15T08:22:55.131Z,23.93
2022-09-15T08:28:42.241Z,23.99
2022-09-15T08:34:25.963Z,24.17
2022-09-15T08:40:13.862Z,24.35
2022-09-15T08:46:00.264Z,24.51
2022-09-15T08:51:45.920Z,24.64
2022-09-15T08:57:29.159Z,24.84
2022-09-15T09:03:22.022Z,24.98
2022-09-15T09:09:24.476Z,25.18
2022-09-15T09:15:14.459Z,25.31
2022-09-15T09:21:02.987Z,25.47
2022-09-15T09:26:49.715Z,25.71
2022-09-15T09:32:38.394Z,26
2022-09-15T09:38:25.099Z,26.15
2022-09-15T09:44:10.383Z,26.35
2022-09-15T09:49:53.821Z,26.39
2022-09-15T09:55:36.647Z,26.44
2022-09-15T10:01:20.576Z,26.51
2022-09-15T10:07:04.354Z,26.53
2022-09-15T10:12:48.091Z,26.33
2022-09-15T10:18:33.027Z,26.21
2022-09-15T10:24:39.671Z,26.2
2022-09-15T10:30:24.095Z,26.39
2022-09-15T10:36:12.311Z,26.61
2022-09-15T10:41:58.611Z,26.81
2022-09-15T10:47:49.226Z,26.9
2022-09-15T10:53:36.633Z,27.04
2022-09-15T11:01:12.217Z,27.14
2022-09-15T11:07:01.615Z,27.31
2022-09-15T11:12:52.495Z,27.03
2022-09-15T11:18:43.175Z,26.96
2022-09-15T11:24:32.344Z,27
2022-09-15T11:30:20.200Z,27.22
2022-09-15T11:36:07.258Z,27.05
2022-09-15T11:41:53.037Z,27.02
2022-09-15T11:47:39.787Z,26.83
2022-09-15T11:53:27.081Z,26.94
2022-09-15T11:59:14.905Z,27.25
2022-09-15T12:05:05.091Z,27.67
2022-09-15T12:10:49.719Z,28.14
2022-09-15T12:16:33.524Z,28.37
2022-09-15T12:22:20.155Z,28.38
2022-09-15T12:28:15.011Z,28.4
2022-09-15T12:33:59.338Z,28.34
2022-09-15T12:39:44.278Z,28.4
2022-09-15T12:45:28.978Z,28.85
2022-09-15T12:51:17.274Z,29.21
2022-09-15T12:57:01.026Z,28.76
2022-09-15T13:02:46.519Z,28.33
2022-09-15T13:08:41.170Z,28
2022-09-15T13:14:26.906Z,27.79
2022-09-15T13:20:15.493Z,27.57
2022-09-15T13:25:59.786Z,27.52
2022-09-15T13:31:45.678Z,27.38
2022-09-15T13:43:54.098Z,27.24
2022-09-15T13:49:44.319Z,27.18
2022-09-15T13:55:28.719Z,27.17
2022-09-15T14:01:12.562Z,27.14
2022-09-15T14:06:58.683Z,27.06
2022-09-15T14:12:44.103Z,27.03
2022-09-15T14:18:28.155Z,26.94
2022-09-15T14:24:20.117Z,26.92
2022-09-15T14:30:06.719Z,26.93
2022-09-15T14:35:49.907Z,26.93
2022-09-15T14:41:35.294Z,26.78
2022-09-15T14:47:20.881Z,26.6
2022-09-15T14:53:06.242Z,26.44
2022-09-15T14:58:50.889Z,26.3
2022-09-15T15:04:38.403Z,26.27
2022-09-15T15:10:24.312Z,26.28
2022-09-15T15:16:13.845Z,26.33
2022-09-15T15:22:02.238Z,26.36
2022-09-15T15:27:50.487Z,26.35
2022-09-15T15:33:34.039Z,26.35
2022-09-15T15:39:23.289Z,26.38
2022-09-15T15:45:11.832Z,26.31
2022-09-15T15:50:55.126Z,26.18
2022-09-15T15:56:38.785Z,26.11
2022-09-15T16:02:22.266Z,26.04
2022-09-15T16:08:10.545Z,25.97
2022-09-15T16:13:53.732Z,25.88
2022-09-15T16:19:37.422Z,25.88
2022-09-15T16:25:26.813Z,25.69
2022-09-15T16:31:13.071Z,25.53
2022-09-15T16:36:56.731Z,25.43
2022-09-15T16:42:40.087Z,25.32
2022-09-15T16:48:23.472Z,25.07
2022-09-15T16:54:09.561Z,24.89
2022-09-15T16:59:52.991Z,24.77
2022-09-15T17:05:37.716Z,24.67
2022-09-15T17:11:24.767Z,24.59
2022-09-15T17:17:13.236Z,24.5
2022-09-15T17:22:57.603Z,24.37
2022-09-15T17:28:40.691Z,24.26
2022-09-15T17:34:24.058Z,24.19
2022-09-15T17:40:07.918Z,24.22
2022-09-15T17:45:51.666Z,24.3
2022-09-15T17:51:34.952Z,24.08
2022-09-15T17:57:18.258Z,23.91
2022-09-15T18:03:02.050Z,23.8
2022-09-15T18:08:45.695Z,23.68
2022-09-15T18:14:29.590Z,23.56
2022-09-15T18:20:15.337Z,23.46
2022-09-15T18:25:58.054Z,23.37
2022-09-15T18:31:41.165Z,23.28
2022-09-15T18:37:24.507Z,23.2
2022-09-15T18:43:07.823Z,23.14
2022-09-15T18:48:51.280Z,23.09
2022-09-15T18:54:35.643Z,23
2022-09-15T19:00:20.744Z,22.91
2022-09-15T19:06:06.406Z,22.87
2022-09-15T19:11:49.544Z,22.79
2022-09-15T19:17:33.964Z,22.69
2022-09-15T19:23:17.319Z,22.66
2022-09-15T19:29:00.570Z,22.61
2022-09-15T19:34:44.317Z,22.63
2022-09-15T19:40:27.522Z,22.53
2022-09-15T19:46:15.354Z,22.49
2022-09-15T19:51:59.014Z,22.47
2022-09-15T19:57:42.411Z,22.41
2022-09-15T20:03:26.722Z,22.39
2022-09-15T20:09:09.761Z,22.35
2022-09-15T20:14:53.048Z,22.3
2022-09-15T20:20:38.794Z,22.29
2022-09-15T20:26:22.666Z,22.28
2022-09-15T20:32:06.447Z,22.26
2022-09-15T20:37:49.717Z,22.26
2022-09-15T20:43:34.639Z,22.22
2022-09-15T20:49:18.123Z,22.19
2022-09-15T20:55:01.614Z,22.18
2022-09-15T21:00:45.841Z,22.15
2022-09-15T21:06:30.569Z,22.16
2022-09-15T21:12:13.750Z,22.19
2022-09-15T21:17:57.095Z,22.19
2022-09-15T21:23:40.847Z,22.16
2022-09-15T21:29:24.632Z,22.14
2022-09-15T21:35:08.119Z,22.12
2022-09-15T21:40:51.423Z,22.06
2022-09-15T21:46:34.855Z,22.02
2022-09-15T21:52:18.409Z,22.01
2022-09-15T21:58:01.241Z,21.98
2022-09-15T22:03:47.182Z,21.98
2022-09-15T22:09:30.363Z,21.97
2022-09-15T22:15:13.936Z,21.98
2022-09-15T22:21:07.218Z,22.06
2022-09-15T22:26:50.450Z,22.04
2022-09-15T22:32:33.576Z,21.97
2022-09-15T22:38:16.957Z,21.94
2022-09-15T22:44:00.170Z,21.9
2022-09-15T22:49:43.333Z,21.85
2022-09-15T22:55:26.335Z,21.81
2022-09-15T23:01:10.548Z,21.78
2022-09-15T23:06:54.114Z,21.76
2022-09-15T23:12:37.254Z,21.77
2022-09-15T23:18:20.309Z,21.76
2022-09-15T23:24:03.803Z,21.73
2022-09-15T23:29:46.917Z,21.67
2022-09-15T23:35:30.111Z,21.65
2022-09-15T23:41:14.213Z,21.61
2022-09-15T23:46:57.895Z,21.6
2022-09-15T23:52:41.525Z,21.58
2022-09-15T23:58:24.681Z,21.57
